createdAt,value
2022-11-05T00:00:37.048Z,86.76
2022-11-05T00:05:54.371Z,86.28
2022-11-05T00:10:53.101Z,85.78
2022-11-05T00:16:10.595Z,86.00
2022-11-05T00:21:29.711Z,86.74
2022-11-05T00:26:28.364Z,85.03
2022-11-05T00:31:27.448Z,85.11
2022-11-05T00:36:26.132Z,85.58
2022-11-05T00:41:24.840Z,85.66
2022-11-05T00:46:23.564Z,85.31
2022-11-05T00:51:22.545Z,85.16
2022-11-05T00:56:21.318Z,85.10
2022-11-05T01:01:20.043Z,85.54
2022-11-05T01:06:19.343Z,85.39
2022-11-05T01:11:34.616Z,85.12
2022-11-05T01:16:33.839Z,85.69
2022-11-05T01:21:33.038Z,85.96
2022-11-05T01:26:31.841Z,86.06
2022-11-05T01:31:30.493Z,85.82
2022-11-05T01:36:29.235Z,86.38
2022-11-05T01:41:27.969Z,86.36
2022-11-05T01:46:41.223Z,86.15
2022-11-05T01:51:41.310Z,86.20
2022-11-05T01:56:48.654Z,86.17
2022-11-05T02:01:47.653Z,86.83
2022-11-05T02:06:46.757Z,85.54
2022-11-05T02:11:46.846Z,86.27
2022-11-05T02:17:38.159Z,85.53
2022-11-05T02:22:48.941Z,86.54
2022-11-05T02:28:09.316Z,87.39
2022-11-05T02:33:18.036Z,85.52
2022-11-05T02:38:52.270Z,85.57
2022-11-05T02:44:09.299Z,85.96
2022-11-05T02:49:17.279Z,86.50
2022-11-05T02:54:38.920Z,86.37
2022-11-05T02:59:37.605Z,86.36
2022-11-05T03:04:36.507Z,86.09
2022-11-05T03:09:56.163Z,86.04
2022-11-05T03:15:07.017Z,85.30
2022-11-05T03:20:21.648Z,85.36
2022-11-05T03:25:24.206Z,86.63
2022-11-05T03:30:25.124Z,86.04
2022-11-05T03:35:28.026Z,86.52
2022-11-05T03:40:29.622Z,86.15
2022-11-05T03:45:36.227Z,85.42
2022-11-05T03:50:42.236Z,86.30
2022-11-05T03:56:03.492Z,85.28
2022-11-05T04:01:03.547Z,84.85
2022-11-05T04:06:21.921Z,85.86
2022-11-05T04:11:39.432Z,85.86
2022-11-05T04:16:56.813Z,84.83
2022-11-05T04:22:14.251Z,84.79
2022-11-05T04:27:12.989Z,84.55
2022-11-05T04:32:11.899Z,84.51
2022-11-05T04:37:10.648Z,84.42
2022-11-05T04:42:09.401Z,83.38
2022-11-05T04:47:08.239Z,82.85
2022-11-05T04:52:06.971Z,82.24
2022-11-05T04:57:05.719Z,83.22
2022-11-05T05:02:04.812Z,82.41
2022-11-05T05:07:03.490Z,82.80
2022-11-05T05:12:02.632Z,81.57
2022-11-05T05:17:01.572Z,75.32
2022-11-05T05:22:00.271Z,73.00
2022-11-05T05:26:59.137Z,70.85
2022-11-05T05:31:58.090Z,69.95
2022-11-05T05:36:56.824Z,73.69
2022-11-05T05:41:55.723Z,79.13
2022-11-05T05:46:55.574Z,79.73
2022-11-05T05:51:54.350Z,81.13
2022-11-05T05:56:53.604Z,79.99
2022-11-05T06:01:52.659Z,81.66
2022-11-05T06:06:51.607Z,82.59
2022-11-05T06:11:50.290Z,81.65
2022-11-05T06:16:48.970Z,80.67
2022-11-05T06:21:47.660Z,82.01
2022-11-05T06:26:46.282Z,81.67
2022-11-05T06:31:45.000Z,83.15
2022-11-05T06:36:43.757Z,84.05
2022-11-05T06:42:11.792Z,84.80
2022-11-05T06:47:02.412Z,84.09
2022-11-05T06:52:01.221Z,82.62
2022-11-05T06:57:00.020Z,83.65
2022-11-05T07:01:59.139Z,84.93
2022-11-05T07:07:00.836Z,84.69
2022-11-05T07:11:59.581Z,83.77
2022-11-05T07:16:58.345Z,83.11
2022-11-05T07:21:56.998Z,81.54
2022-11-05T07:26:55.646Z,82.46
2022-11-05T07:31:54.328Z,81.70
2022-11-05T07:36:53.002Z,82.72
2022-11-05T07:41:53.037Z,82.23
2022-11-05T07:46:51.708Z,82.11
2022-11-05T07:51:50.455Z,82.80
2022-11-05T07:56:49.093Z,81.55
2022-11-05T08:01:47.983Z,81.85
2022-11-05T08:06:46.827Z,82.87
2022-11-05T08:11:45.826Z,82.57
2022-11-05T08:16:44.439Z,81.46
2022-11-05T08:21:43.289Z,80.06
2022-11-05T08:26:41.975Z,82.03
2022-11-05T08:31:40.897Z,82.94
2022-11-05T08:36:46.362Z,80.96
2022-11-05T08:41:46.185Z,81.57
2022-11-05T08:46:44.853Z,80.72
2022-11-05T08:51:44.427Z,80.81
2022-11-05T08:56:46.095Z,78.75
2022-11-05T09:01:44.987Z,78.53
2022-11-05T09:06:44.036Z,79.88
2022-11-05T09:12:10.574Z,78.28
2022-11-05T09:17:01.449Z,77.67
2022-11-05T09:22:00.266Z,77.68
2022-11-05T09:26:59.016Z,78.21
2022-11-05T09:31:58.848Z,77.54
2022-11-05T09:36:57.979Z,76.71
2022-11-05T09:42:02.736Z,76.26
2022-11-05T09:47:07.004Z,76.05
2022-11-05T09:52:12.445Z,76.29
2022-11-05T09:57:17.844Z,75.31
2022-11-05T10:02:34.463Z,74.71
2022-11-05T10:07:42.413Z,73.78
2022-11-05T10:12:50.771Z,73.77
2022-11-05T10:17:56.394Z,72.55
2022-11-05T10:22:58.854Z,70.92
2022-11-05T10:27:59.466Z,70.56
2022-11-05T10:33:01.912Z,71.39
2022-11-05T10:38:02.011Z,71.97
2022-11-05T10:43:16.687Z,72.93
2022-11-05T10:48:26.103Z,71.50
2022-11-05T10:53:30.096Z,70.62
2022-11-05T10:58:35.324Z,72.00
2022-11-05T11:03:34.164Z,70.41
2022-11-05T11:08:35.655Z,70.13
2022-11-05T11:13:51.226Z,68.44
2022-11-05T11:19:01.095Z,67.87
2022-11-05T11:24:03.022Z,67.22
2022-11-05T11:29:05.984Z,66.80
2022-11-05T11:34:07.929Z,67.34
2022-11-05T11:39:07.703Z,69.32
2022-11-05T11:44:13.138Z,68.07
2022-11-05T11:49:50.292Z,66.15
2022-11-05T11:54:50.644Z,64.00
2022-11-05T12:05:14.779Z,63.68
2022-11-05T12:10:23.588Z,63.93
2022-11-05T12:15:27.742Z,65.72
2022-11-05T12:20:48.136Z,66.23
2022-11-05T12:26:15.149Z,68.20
2022-11-05T12:31:37.855Z,68.37
2022-11-05T12:37:07.595Z,66.89
2022-11-05T12:42:31.305Z,63.80
2022-11-05T12:48:13.722Z,63.85
2022-11-05T12:53:34.094Z,65.95
2022-11-05T12:58:35.767Z,65.52
2022-11-05T13:03:42.350Z,66.37
2022-11-05T13:09:01.051Z,66.15
2022-11-05T13:14:14.558Z,62.87
2022-11-05T13:19:23.340Z,63.51
2022-11-05T13:24:32.983Z,60.22
2022-11-05T13:29:38.297Z,61.62
2022-11-05T13:34:37.862Z,62.81
2022-11-05T13:39:50.765Z,63.45
2022-11-05T13:45:27.139Z,64.26
2022-11-05T13:50:44.299Z,59.96
2022-11-05T13:56:09.728Z,59.96
2022-11-05T14:01:33.698Z,61.31
2022-11-05T14:06:36.142Z,61.39
2022-11-05T14:11:42.803Z,61.49
2022-11-05T14:17:09.504Z,62.91
2022-11-05T14:22:33.446Z,64.18
2022-11-05T14:27:42.694Z,64.23
2022-11-05T14:32:50.111Z,65.55
2022-11-05T14:37:56.910Z,64.61
2022-11-05T14:42:59.066Z,65.29
2022-11-05T14:48:03.571Z,64.99
2022-11-05T14:53:10.860Z,69.17
2022-11-05T14:58:27.645Z,70.38
2022-11-05T15:03:59.321Z,72.56
2022-11-05T15:09:17.389Z,72.86
2022-11-05T15:14:34.603Z,72.36
2022-11-05T15:19:37.032Z,75.42
2022-11-05T15:24:37.485Z,73.46
2022-11-05T15:29:36.727Z,75.30
2022-11-05T15:34:35.885Z,76.46
2022-11-05T15:39:49.318Z,77.75
2022-11-05T15:44:58.923Z,78.83
2022-11-05T15:50:09.958Z,79.41
2022-11-05T15:55:12.137Z,80.15
2022-11-05T16:00:21.065Z,79.65
2022-11-05T16:05:21.255Z,80.13
2022-11-05T16:10:26.684Z,80.70
2022-11-05T16:15:29.511Z,80.37
2022-11-05T16:20:34.570Z,81.97
2022-11-05T16:25:39.385Z,81.32
2022-11-05T16:30:38.097Z,82.97
2022-11-05T16:35:46.007Z,81.71
2022-11-05T16:40:44.917Z,81.63
2022-11-05T16:45:43.829Z,81.34
2022-11-05T16:50:43.241Z,83.81
2022-11-05T16:55:44.915Z,83.00
2022-11-05T17:00:43.713Z,81.33
2022-11-05T17:05:42.869Z,83.63
2022-11-05T17:10:41.630Z,83.33
2022-11-05T17:15:41.789Z,87.40
2022-11-05T17:20:44.090Z,74.75
2022-11-05T17:25:45.731Z,78.19
2022-11-05T17:30:51.689Z,80.77
2022-11-05T17:35:52.223Z,81.54
2022-11-05T17:40:51.875Z,82.76
2022-11-05T17:45:52.440Z,84.16
2022-11-05T17:50:51.374Z,83.82
2022-11-05T17:55:50.187Z,83.86
2022-11-05T18:00:48.927Z,83.31
2022-11-05T18:05:47.657Z,83.78
2022-11-05T18:10:46.362Z,81.16
2022-11-05T18:15:45.099Z,82.33
2022-11-05T18:20:43.967Z,81.99
2022-11-05T18:25:43.303Z,81.85
2022-11-05T18:30:42.575Z,81.58
2022-11-05T18:35:43.256Z,80.94
2022-11-05T18:40:42.104Z,81.73
2022-11-05T18:45:40.956Z,81.37
2022-11-05T18:50:40.047Z,82.20
2022-11-05T18:55:40.554Z,80.32
2022-11-05T19:00:40.165Z,81.05
2022-11-05T19:05:39.060Z,80.80
2022-11-05T19:10:40.721Z,82.33
2022-11-05T19:15:43.944Z,82.20
2022-11-05T19:20:42.984Z,81.54
2022-11-05T19:25:41.660Z,83.14
2022-11-05T19:30:40.588Z,83.46
2022-11-05T19:35:41.632Z,83.55
2022-11-05T19:40:40.414Z,84.81
2022-11-05T19:45:44.932Z,84.48
2022-11-05T19:50:44.146Z,84.36
2022-11-05T19:55:44.968Z,83.89
2022-11-05T20:00:44.097Z,83.99
2022-11-05T20:05:43.428Z,84.08
2022-11-05T20:10:42.337Z,83.76
2022-11-05T20:15:41.150Z,83.48
2022-11-05T20:20:40.029Z,84.33
2022-11-05T20:25:39.046Z,84.49
2022-11-05T20:30:39.191Z,84.08
2022-11-05T20:35:39.689Z,85.50
2022-11-05T20:40:39.355Z,84.95
2022-11-05T20:45:38.342Z,84.96
2022-11-05T20:50:44.450Z,83.88
2022-11-05T20:55:44.933Z,83.76
2022-11-05T21:00:55.384Z,84.60
2022-11-05T21:06:04.131Z,85.38
2022-11-05T21:11:03.047Z,85.77
2022-11-05T21:16:02.504Z,85.11
2022-11-05T21:21:12.216Z,84.42
2022-11-05T21:26:13.398Z,84.77
2022-11-05T21:31:12.189Z,85.83
2022-11-05T21:36:12.933Z,85.50
2022-11-05T21:41:12.739Z,84.77
2022-11-05T21:46:13.481Z,85.20
2022-11-05T21:51:30.937Z,86.36
2022-11-05T21:56:48.441Z,86.36
2022-11-05T22:01:47.327Z,86.05
2022-11-05T22:06:46.426Z,85.90
2022-11-05T22:11:45.103Z,86.26
2022-11-05T22:16:43.843Z,84.99
2022-11-05T22:21:42.873Z,85.00
2022-11-05T22:26:43.063Z,85.37
2022-11-05T22:31:41.940Z,84.90
2022-11-05T22:36:40.864Z,84.74
2022-11-05T22:41:40.167Z,84.81
2022-11-05T22:46:38.970Z,85.43
2022-11-05T22:51:38.738Z,84.83
2022-11-05T22:56:40.782Z,86.40
2022-11-05T23:01:40.867Z,86.05
2022-11-05T23:06:58.362Z,86.84
2022-11-05T23:12:00.352Z,85.57
2022-11-05T23:17:18.030Z,86.09
2022-11-05T23:22:38.618Z,85.97
2022-11-05T23:27:39.733Z,85.89
2022-11-05T23:32:38.565Z,86.18
2022-11-05T23:37:56.234Z,86.17
2022-11-05T23:43:14.667Z,85.85
2022-11-05T23:48:36.438Z,84.80
2022-11-05T23:53:37.393Z,84.29
2022-11-05T23:58:37.509Z,86.01
